createdAt,value
2022-10-05T00:00:14.460Z,102211.03
2022-10-05T00:02:41.463Z,102208.22
2022-10-05T00:05:30.968Z,102203.72
2022-10-05T00:08:04.920Z,102207.38
2022-10-05T00:10:31.496Z,102194.97
2022-10-05T00:12:58.370Z,102202.22
2022-10-05T00:15:25.027Z,102196.28
2022-10-05T00:17:51.608Z,102195.53
2022-10-05T00:20:18.429Z,102191.19
2022-10-05T00:22:48.256Z,102192.97
2022-10-05T00:25:20.990Z,102194.03
2022-10-05T00:28:00.382Z,102194.88
2022-10-05T00:30:32.467Z,102199.44
2022-10-05T00:32:59.987Z,102205.72
2022-10-05T00:35:29.370Z,102203.91
2022-10-05T00:37:57.767Z,102217.97
2022-10-05T00:40:33.794Z,102208.25
2022-10-05T00:43:15.544Z,102218.03
2022-10-05T00:45:56.605Z,102215.41
2022-10-05T00:48:55.529Z,102215.56
2022-10-05T00:51:28.468Z,102218.38
2022-10-05T00:54:09.319Z,102209.50
2022-10-05T00:56:57.324Z,102219.16
2022-10-05T00:59:40.201Z,102219.16
2022-10-05T01:02:24.571Z,102213.25
2022-10-05T01:04:56.565Z,102214.19
2022-10-05T01:07:35.252Z,102210.69
2022-10-05T01:10:39.563Z,102211.38
2022-10-05T01:13:29.586Z,102203.13
2022-10-05T01:16:17.794Z,102202.19
2022-10-05T01:18:53.950Z,102192.06
2022-10-05T01:21:26.679Z,102204.50
2022-10-05T01:24:18.272Z,102213.31
2022-10-05T01:27:03.110Z,102206.31
2022-10-05T01:29:41.842Z,102202.19
2022-10-05T01:32:23.929Z,102210.94
2022-10-05T01:35:02.427Z,102202.09
2022-10-05T01:37:51.352Z,102203.81
2022-10-05T01:40:38.599Z,102190.53
2022-10-05T01:43:08.103Z,102195.09
2022-10-05T01:45:49.182Z,102208.41
2022-10-05T01:48:37.126Z,102198.88
2022-10-05T01:51:28.563Z,102197.81
2022-10-05T01:54:14.044Z,102203.22
2022-10-05T01:56:40.647Z,102199.13
2022-10-05T01:59:18.072Z,102199.91
2022-10-05T02:02:05.227Z,102201.69
2022-10-05T02:05:01.556Z,102205.28
2022-10-05T02:07:54.349Z,102218.59
2022-10-05T02:10:25.014Z,102210.34
2022-10-05T02:12:59.394Z,102209.25
2022-10-05T02:15:31.628Z,102209.41
2022-10-05T02:18:03.408Z,102211.63
2022-10-05T02:20:34.561Z,102204.63
2022-10-05T02:23:07.491Z,102202.63
2022-10-05T02:25:39.931Z,102222.97
2022-10-05T02:28:18.723Z,102215.88
2022-10-05T02:30:52.692Z,102222.09
2022-10-05T02:33:27.636Z,102216.78
2022-10-05T02:35:55.833Z,102219.50
2022-10-05T02:38:36.726Z,102218.75
2022-10-05T02:41:12.297Z,102214.47
2022-10-05T02:43:57.200Z,102211.78
2022-10-05T02:47:07.328Z,102206.53
2022-10-05T02:50:00.537Z,102209.19
2022-10-05T02:52:34.915Z,102205.94
2022-10-05T02:55:24.778Z,102205.00
2022-10-05T02:58:13.695Z,102204.19
2022-10-05T03:00:48.024Z,102205.94
2022-10-05T03:03:31.028Z,102205.91
2022-10-05T03:06:03.858Z,102196.16
2022-10-05T03:08:46.944Z,102185.75
2022-10-05T03:11:16.480Z,102194.53
2022-10-05T03:14:09.352Z,102204.28
2022-10-05T03:17:00.902Z,102201.72
2022-10-05T03:19:55.742Z,102199.94
2022-10-05T03:22:45.624Z,102199.97
2022-10-05T03:25:38.046Z,102199.66
2022-10-05T03:28:17.894Z,102198.06
2022-10-05T03:30:55.301Z,102195.38
2022-10-05T03:33:42.962Z,102199.78
2022-10-05T03:36:24.779Z,102196.56
2022-10-05T03:39:17.735Z,102190.31
2022-10-05T03:42:10.483Z,102196.78
2022-10-05T03:44:44.433Z,102198.88
2022-10-05T03:47:25.361Z,102194.28
2022-10-05T03:50:10.448Z,102199.78
2022-10-05T03:52:44.309Z,102205.94
2022-10-05T03:55:20.217Z,102215.47
2022-10-05T03:57:48.831Z,102202.09
2022-10-05T04:00:20.086Z,102204.78
2022-10-05T04:02:46.838Z,102206.50
2022-10-05T04:05:24.771Z,102211.72
2022-10-05T04:07:58.709Z,102205.69
2022-10-05T04:10:53.344Z,102212.88
2022-10-05T04:13:35.651Z,102207.66
2022-10-05T04:16:31.722Z,102212.81
2022-10-05T04:19:23.575Z,102212.66
2022-10-05T04:22:11.770Z,102212.91
2022-10-05T04:25:01.522Z,102211.13
2022-10-05T04:27:39.388Z,102207.41
2022-10-05T04:30:18.800Z,102206.66
2022-10-05T04:32:50.059Z,102206.69
2022-10-05T04:35:41.325Z,102214.38
2022-10-05T04:38:35.871Z,102218.88
2022-10-05T04:41:16.654Z,102212.97
2022-10-05T04:43:49.311Z,102213.19
2022-10-05T04:46:57.896Z,102226.47
2022-10-05T04:49:45.825Z,102215.97
2022-10-05T04:52:24.467Z,102227.41
2022-10-05T04:55:10.135Z,102226.31
2022-10-05T04:58:15.557Z,102224.69
2022-10-05T05:01:12.814Z,102220.38
2022-10-05T05:04:23.509Z,102231.00
2022-10-05T05:06:56.458Z,102237.25
2022-10-05T05:10:04.020Z,102233.81
2022-10-05T05:12:36.616Z,102241.75
2022-10-05T05:15:41.921Z,102237.31
2022-10-05T05:18:39.575Z,102241.91
2022-10-05T05:21:34.360Z,102237.47
2022-10-05T05:24:20.913Z,102242.97
2022-10-05T05:27:10.091Z,102250.88
2022-10-05T05:30:01.512Z,102248.41
2022-10-05T05:32:52.934Z,102250.22
2022-10-05T05:35:37.972Z,102252.72
2022-10-05T05:38:16.948Z,102248.34
2022-10-05T05:41:10.086Z,102248.34
2022-10-05T05:43:46.201Z,102251.94
2022-10-05T05:46:44.770Z,102254.53
2022-10-05T05:49:39.873Z,102256.31
2022-10-05T05:52:24.563Z,102266.09
2022-10-05T05:55:00.369Z,102267.00
2022-10-05T05:57:38.481Z,102273.94
2022-10-05T06:00:20.648Z,102280.16
2022-10-05T06:03:26.758Z,102281.84
2022-10-05T06:06:04.357Z,102272.91
2022-10-05T06:08:53.079Z,102271.09
2022-10-05T06:11:31.700Z,102277.22
2022-10-05T06:14:04.492Z,102280.66
2022-10-05T06:16:53.941Z,102284.03
2022-10-05T06:19:23.874Z,102285.75
2022-10-05T06:22:23.857Z,102288.28
2022-10-05T06:24:59.650Z,102286.41
2022-10-05T06:28:03.782Z,102284.53
2022-10-05T06:31:06.088Z,102290.59
2022-10-05T06:33:52.561Z,102290.53
2022-10-05T06:36:40.255Z,102292.97
2022-10-05T06:39:31.922Z,102287.59
2022-10-05T06:42:27.069Z,102291.81
2022-10-05T06:45:11.835Z,102281.13
2022-10-05T06:47:44.362Z,102287.09
2022-10-05T06:50:28.953Z,102282.53
2022-10-05T06:53:07.736Z,102295.91
2022-10-05T06:56:04.504Z,102298.34
2022-10-05T06:58:48.861Z,102305.31
2022-10-05T07:02:00.667Z,102301.44
2022-10-05T07:04:36.957Z,102302.16
2022-10-05T07:07:31.082Z,102309.09
2022-10-05T07:10:22.818Z,102311.56
2022-10-05T07:13:01.896Z,102316.66
2022-10-05T07:16:03.865Z,102317.28
2022-10-05T07:18:49.181Z,102313.66
2022-10-05T07:21:39.940Z,102313.38
2022-10-05T07:24:23.858Z,102318.28
2022-10-05T07:27:18.925Z,102319.19
2022-10-05T07:30:10.615Z,102322.72
2022-10-05T07:33:09.347Z,102318.09
2022-10-05T07:36:01.065Z,102315.44
2022-10-05T07:38:42.455Z,102323.28
2022-10-05T07:41:26.194Z,102313.44
2022-10-05T07:44:08.864Z,102319.44
2022-10-05T07:46:55.469Z,102320.97
2022-10-05T07:49:53.492Z,102324.41
2022-10-05T07:52:25.130Z,102332.22
2022-10-05T07:55:05.976Z,102329.38
2022-10-05T07:58:07.838Z,102323.91
2022-10-05T08:01:00.545Z,102324.72
2022-10-05T08:03:34.707Z,102321.06
2022-10-05T08:06:05.749Z,102325.28
2022-10-05T08:08:41.213Z,102336.78
2022-10-05T08:11:17.583Z,102334.75
2022-10-05T08:13:56.368Z,102337.31
2022-10-05T08:16:30.766Z,102334.34
2022-10-05T08:19:00.748Z,102332.63
2022-10-05T08:21:39.408Z,102339.53
2022-10-05T08:24:11.127Z,102342.06
2022-10-05T08:27:02.772Z,102333.88
2022-10-05T08:29:47.926Z,102340.69
2022-10-05T08:32:22.768Z,102345.81
2022-10-05T08:34:59.443Z,102342.88
2022-10-05T08:37:38.996Z,102346.28
2022-10-05T08:40:36.875Z,102346.94
2022-10-05T08:43:18.641Z,102345.06
2022-10-05T08:46:17.807Z,102350.97
2022-10-05T08:49:23.653Z,102342.50
2022-10-05T08:51:56.717Z,102343.00
2022-10-05T08:54:46.757Z,102342.50
2022-10-05T08:57:19.431Z,102349.94
2022-10-05T09:00:03.716Z,102343.22
2022-10-05T09:02:36.558Z,102338.47
2022-10-05T09:05:38.797Z,102345.94
2022-10-05T09:08:23.728Z,102346.38
2022-10-05T09:11:14.876Z,102344.13
2022-10-05T09:13:53.823Z,102341.94
2022-10-05T09:16:45.743Z,102340.59
2022-10-05T09:19:24.530Z,102349.66
2022-10-05T09:22:15.851Z,102349.19
2022-10-05T09:24:57.570Z,102351.41
2022-10-05T09:27:49.456Z,102348.28
2022-10-05T09:30:29.012Z,102355.75
2022-10-05T09:37:09.476Z,102357.22
2022-10-05T09:39:46.616Z,102352.69
2022-10-05T09:42:38.225Z,102358.22
2022-10-05T09:45:23.347Z,102355.81
2022-10-05T09:48:13.404Z,102349.44
2022-10-05T09:51:11.155Z,102353.06
2022-10-05T09:54:02.329Z,102349.50
2022-10-05T09:56:50.427Z,102352.22
2022-10-05T10:00:00.769Z,102347.16
2022-10-05T10:02:50.530Z,102342.47
2022-10-05T10:05:39.371Z,102341.44
2022-10-05T10:08:06.199Z,102339.09
2022-10-05T10:11:02.294Z,102336.84
2022-10-05T10:13:57.388Z,102338.63
2022-10-05T10:16:27.048Z,102334.31
2022-10-05T10:19:22.769Z,102336.66
2022-10-05T10:21:56.738Z,102333.81
2022-10-05T10:24:42.087Z,102334.56
2022-10-05T10:27:24.247Z,102330.13
2022-10-05T10:30:04.490Z,102338.81
2022-10-05T10:32:37.052Z,102332.81
2022-10-05T10:35:25.404Z,102332.38
2022-10-05T10:38:14.138Z,102326.63
2022-10-05T10:41:01.017Z,102330.44
2022-10-05T10:43:43.928Z,102331.84
2022-10-05T10:46:35.642Z,102329.50
2022-10-05T10:49:20.493Z,102328.38
2022-10-05T10:52:31.971Z,102321.38
2022-10-05T10:55:43.228Z,102327.78
2022-10-05T10:58:47.453Z,102334.75
2022-10-05T11:04:37.475Z,102329.03
2022-10-05T11:07:25.175Z,102322.50
2022-10-05T11:10:10.156Z,102325.38
2022-10-05T11:13:12.951Z,102319.31
2022-10-05T11:15:57.651Z,102321.22
2022-10-05T11:18:29.747Z,102306.00
2022-10-05T11:20:59.231Z,102309.69
2022-10-05T11:23:57.536Z,102303.53
2022-10-05T11:26:45.463Z,102299.53
2022-10-05T11:29:32.578Z,102291.44
2022-10-05T11:32:02.366Z,102292.41
2022-10-05T11:35:04.555Z,102284.19
2022-10-05T11:37:59.358Z,102278.47
2022-10-05T11:40:50.418Z,102273.19
2022-10-05T11:43:23.483Z,102286.28
2022-10-05T11:46:20.247Z,102282.13
2022-10-05T11:49:02.160Z,102283.63
2022-10-05T11:51:41.398Z,102273.47
2022-10-05T11:54:26.976Z,102279.91
2022-10-05T11:57:04.041Z,102283.53
2022-10-05T11:59:39.729Z,102267.41
2022-10-05T12:02:06.341Z,102269.88
2022-10-05T12:04:35.954Z,102275.09
2022-10-05T12:07:09.416Z,102266.06
2022-10-05T12:10:02.090Z,102264.34
2022-10-05T12:12:35.973Z,102269.03
2022-10-05T12:15:18.228Z,102267.94
2022-10-05T12:17:53.157Z,102272.19
2022-10-05T12:20:39.344Z,102258.56
2022-10-05T12:23:28.151Z,102264.91
2022-10-05T12:26:07.941Z,102263.31
2022-10-05T12:28:52.322Z,102258.28
2022-10-05T12:31:30.769Z,102254.84
2022-10-05T12:34:03.012Z,102255.59
2022-10-05T12:37:03.173Z,102246.31
2022-10-05T12:39:47.817Z,102248.06
2022-10-05T12:42:14.437Z,102244.66
2022-10-05T12:44:59.503Z,102247.03
2022-10-05T12:47:45.041Z,102240.94
2022-10-05T12:50:18.342Z,102239.53
2022-10-05T12:53:11.319Z,102236.09
2022-10-05T12:55:51.745Z,102236.72
2022-10-05T12:58:46.285Z,102238.94
2022-10-05T13:01:50.957Z,102239.69
2022-10-05T13:04:42.075Z,102228.78
2022-10-05T13:07:20.889Z,102233.06
2022-10-05T13:09:53.457Z,102227.16
2022-10-05T13:12:48.122Z,102228.78
2022-10-05T13:15:31.746Z,102222.31
2022-10-05T13:18:19.821Z,102222.50
2022-10-05T13:21:01.261Z,102228.72
2022-10-05T13:23:35.021Z,102223.50
2022-10-05T13:26:06.528Z,102222.50
2022-10-05T13:28:49.232Z,102222.66
2022-10-05T13:31:24.789Z,102221.00
2022-10-05T13:34:05.112Z,102219.88
2022-10-05T13:36:46.697Z,102222.16
2022-10-05T13:39:49.402Z,102230.78
2022-10-05T13:42:26.092Z,102227.16
2022-10-05T13:44:55.877Z,102230.63
2022-10-05T13:47:42.327Z,102224.38
2022-10-05T13:50:24.838Z,102227.22
2022-10-05T13:53:29.798Z,102219.34
2022-10-05T13:56:00.739Z,102226.44
2022-10-05T13:58:46.370Z,102226.75
2022-10-05T14:01:18.882Z,102230.22
2022-10-05T14:04:35.171Z,102218.69
2022-10-05T14:07:23.672Z,102212.56
2022-10-05T14:09:50.372Z,102211.66
2022-10-05T14:12:22.741Z,102212.56
2022-10-05T14:14:56.969Z,102204.31
2022-10-05T14:17:29.165Z,102204.94
2022-10-05T14:20:02.806Z,102215.13
2022-10-05T14:22:29.588Z,102207.78
2022-10-05T14:25:03.259Z,102201.63
2022-10-05T14:27:33.341Z,102205.59
2022-10-05T14:30:17.078Z,102195.47
2022-10-05T14:32:52.769Z,102198.31
2022-10-05T14:35:25.477Z,102197.69
2022-10-05T14:38:00.534Z,102198.22
2022-10-05T14:40:32.297Z,102193.66
2022-10-05T14:43:17.130Z,102198.06
2022-10-05T14:46:23.327Z,102195.63
2022-10-05T14:49:14.217Z,102194.84
2022-10-05T14:51:42.911Z,102194.50
2022-10-05T14:54:30.405Z,102192.16
2022-10-05T14:57:15.418Z,102195.72
2022-10-05T15:00:02.209Z,102183.56
2022-10-05T15:02:56.794Z,102190.44
2022-10-05T15:05:35.593Z,102187.91
2022-10-05T15:08:08.827Z,102194.94
2022-10-05T15:10:49.877Z,102189.63
2022-10-05T15:13:24.266Z,102188.25
2022-10-05T15:16:04.120Z,102194.16
2022-10-05T15:18:57.842Z,102187.91
2022-10-05T15:21:54.485Z,102198.56
2022-10-05T15:24:26.427Z,102189.81
2022-10-05T15:26:57.829Z,102189.00
2022-10-05T15:29:35.245Z,102196.91
2022-10-05T15:32:23.531Z,102191.88
2022-10-05T15:35:29.947Z,102194.72
2022-10-05T15:38:02.646Z,102188.41
2022-10-05T15:40:54.918Z,102195.59
2022-10-05T15:43:24.174Z,102200.97
2022-10-05T15:46:06.431Z,102192.19
2022-10-05T15:48:49.304Z,102194.28
2022-10-05T15:51:30.617Z,102205.78
2022-10-05T15:54:53.419Z,102202.41
2022-10-05T15:57:52.589Z,102194.56
2022-10-05T16:00:22.217Z,102200.84
2022-10-05T16:03:08.716Z,102200.91
2022-10-05T16:05:57.647Z,102204.72
2022-10-05T16:08:54.115Z,102211.91
2022-10-05T16:11:52.735Z,102207.56
2022-10-05T16:14:42.046Z,102212.13
2022-10-05T16:17:21.310Z,102208.66
2022-10-05T16:19:53.942Z,102206.13
2022-10-05T16:22:45.078Z,102213.16
2022-10-05T16:25:31.148Z,102216.25
2022-10-05T16:28:16.445Z,102214.34
2022-10-05T16:31:00.193Z,102205.75
2022-10-05T16:33:54.425Z,102208.66
2022-10-05T16:36:27.165Z,102209.69
2022-10-05T16:39:03.607Z,102214.91
2022-10-05T16:41:43.502Z,102210.56
2022-10-05T16:44:31.958Z,102209.94
2022-10-05T16:47:28.302Z,102206.66
2022-10-05T16:50:19.742Z,102231.03
2022-10-05T16:53:09.576Z,102219.38
2022-10-05T16:55:42.222Z,102228.19
2022-10-05T16:58:17.590Z,102234.81
2022-10-05T17:03:54.684Z,102236.84
2022-10-05T17:06:27.655Z,102238.16
2022-10-05T17:09:32.083Z,102241.81
2022-10-05T17:12:29.555Z,102247.47
2022-10-05T17:15:25.862Z,102246.88
2022-10-05T17:18:23.993Z,102262.34
2022-10-05T17:21:21.462Z,102256.09
2022-10-05T17:24:18.383Z,102265.19
2022-10-05T17:27:12.792Z,102252.84
2022-10-05T17:29:47.728Z,102250.69
2022-10-05T17:32:17.305Z,102249.66
2022-10-05T17:35:18.179Z,102255.25
2022-10-05T17:38:14.418Z,102251.97
2022-10-05T17:41:01.177Z,102255.56
2022-10-05T17:43:35.305Z,102262.97
2022-10-05T17:46:09.036Z,102270.50
2022-10-05T17:48:47.247Z,102261.59
2022-10-05T17:51:48.603Z,102272.84
2022-10-05T17:54:44.495Z,102275.53
2022-10-05T17:57:11.042Z,102275.22
2022-10-05T17:59:47.001Z,102275.34
2022-10-05T18:02:21.006Z,102270.88
2022-10-05T18:05:12.476Z,102270.06
2022-10-05T18:07:42.054Z,102276.59
2022-10-05T18:10:11.824Z,102273.78
2022-10-05T18:13:29.928Z,102281.13
2022-10-05T18:15:56.733Z,102286.47
2022-10-05T18:18:54.698Z,102281.13
2022-10-05T18:21:37.099Z,102277.78
2022-10-05T18:24:14.248Z,102288.75
2022-10-05T18:26:54.629Z,102281.81
2022-10-05T18:30:02.757Z,102280.00
2022-10-05T18:32:51.097Z,102276.50
2022-10-05T18:35:39.558Z,102277.81
2022-10-05T18:38:19.301Z,102284.97
2022-10-05T18:40:58.233Z,102286.31
2022-10-05T18:43:45.699Z,102284.50
2022-10-05T18:46:25.142Z,102291.78
2022-10-05T18:48:57.551Z,102293.78
2022-10-05T18:51:52.850Z,102293.91
2022-10-05T18:54:43.636Z,102288.50
2022-10-05T18:57:52.556Z,102290.06
2022-10-05T19:00:54.419Z,102300.97
2022-10-05T19:03:46.552Z,102296.69
2022-10-05T19:06:30.243Z,102301.13
2022-10-05T19:08:56.919Z,102300.28
2022-10-05T19:11:29.925Z,102287.84
2022-10-05T19:14:19.869Z,102291.72
2022-10-05T19:17:12.332Z,102298.16
2022-10-05T19:19:38.970Z,102301.06
2022-10-05T19:22:25.205Z,102305.47
2022-10-05T19:25:14.887Z,102305.75
2022-10-05T19:28:20.585Z,102308.84
2022-10-05T19:31:02.898Z,102302.72
2022-10-05T19:34:07.273Z,102310.94
2022-10-05T19:36:55.809Z,102315.56
2022-10-05T19:39:41.423Z,102314.75
2022-10-05T19:42:26.737Z,102321.97
2022-10-05T19:45:24.652Z,102309.66
2022-10-05T19:48:13.600Z,102319.53
2022-10-05T19:50:56.338Z,102324.81
2022-10-05T19:53:35.170Z,102322.44
2022-10-05T19:56:33.712Z,102329.00
2022-10-05T19:59:13.875Z,102331.84
2022-10-05T20:01:50.095Z,102331.09
2022-10-05T20:04:44.834Z,102328.22
2022-10-05T20:07:20.728Z,102322.09
2022-10-05T20:09:59.093Z,102333.69
2022-10-05T20:12:51.995Z,102326.50
2022-10-05T20:15:53.358Z,102330.91
2022-10-05T20:19:03.645Z,102327.31
2022-10-05T20:21:47.049Z,102336.53
2022-10-05T20:24:26.035Z,102327.66
2022-10-05T20:27:02.608Z,102327.19
2022-10-05T20:29:33.680Z,102330.13
2022-10-05T20:32:04.597Z,102335.69
2022-10-05T20:34:33.042Z,102338.19
2022-10-05T20:37:00.797Z,102336.72
2022-10-05T20:39:29.543Z,102335.88
2022-10-05T20:41:58.490Z,102337.81
2022-10-05T20:44:26.341Z,102334.47
2022-10-05T20:46:57.693Z,102337.94
2022-10-05T20:49:27.233Z,102339.94
2022-10-05T20:51:56.246Z,102342.72
2022-10-05T20:54:24.584Z,102339.84
2022-10-05T20:56:53.208Z,102346.13
2022-10-05T20:59:19.936Z,102341.97
2022-10-05T21:01:50.355Z,102341.19
2022-10-05T21:04:18.743Z,102343.81
2022-10-05T21:06:46.353Z,102349.22
2022-10-05T21:09:18.392Z,102351.91
2022-10-05T21:11:54.629Z,102345.63
2022-10-05T21:14:22.861Z,102349.22
2022-10-05T21:16:50.490Z,102351.78
2022-10-05T21:19:17.481Z,102352.06
2022-10-05T21:21:45.940Z,102350.28
2022-10-05T21:24:14.304Z,102351.19
2022-10-05T21:26:41.949Z,102342.50
2022-10-05T21:29:12.506Z,102346.94
2022-10-05T21:31:42.306Z,102348.06
2022-10-05T21:34:09.048Z,102343.66
2022-10-05T21:36:35.844Z,102344.47
2022-10-05T21:39:02.598Z,102339.00
2022-10-05T21:41:29.305Z,102348.28
2022-10-05T21:43:56.621Z,102345.53
2022-10-05T21:46:27.421Z,102336.88
2022-10-05T21:48:56.288Z,102349.66
2022-10-05T21:51:25.113Z,102340.00
2022-10-05T21:54:06.265Z,102341.78
2022-10-05T21:56:36.163Z,102346.25
2022-10-05T21:59:09.602Z,102340.06
2022-10-05T22:01:36.758Z,102346.22
2022-10-05T22:04:07.199Z,102343.50
2022-10-05T22:06:35.470Z,102341.00
2022-10-05T22:09:02.588Z,102344.34
2022-10-05T22:11:29.292Z,102342.72
2022-10-05T22:14:02.913Z,102347.41
2022-10-05T22:16:33.642Z,102346.84
2022-10-05T22:19:06.082Z,102339.81
2022-10-05T22:21:37.991Z,102343.50
2022-10-05T22:24:05.147Z,102348.63
2022-10-05T22:26:32.698Z,102344.25
2022-10-05T22:29:00.252Z,102345.84
2022-10-05T22:31:27.207Z,102346.94
2022-10-05T22:33:54.152Z,102345.50
2022-10-05T22:36:22.431Z,102348.25
2022-10-05T22:38:50.407Z,102350.47
2022-10-05T22:41:18.443Z,102343.44
2022-10-05T22:43:50.853Z,102333.56
2022-10-05T22:46:18.202Z,102339.16
2022-10-05T22:48:45.278Z,102333.56
2022-10-05T22:51:12.146Z,102327.38
2022-10-05T22:53:42.342Z,102332.03
2022-10-05T22:56:11.656Z,102328.31
2022-10-05T22:58:40.403Z,102329.94
2022-10-05T23:01:12.514Z,102323.75
2022-10-05T23:03:39.314Z,102324.13
2022-10-05T23:06:12.449Z,102323.19
2022-10-05T23:08:40.341Z,102318.53
2022-10-05T23:11:15.477Z,102319.38
2022-10-05T23:13:42.471Z,102319.50
2022-10-05T23:16:18.195Z,102313.91
2022-10-05T23:18:47.543Z,102311.41
2022-10-05T23:21:14.936Z,102310.69
2022-10-05T23:23:43.916Z,102310.69
2022-10-05T23:26:11.600Z,102309.03
2022-10-05T23:28:51.300Z,102310.81
2022-10-05T23:31:23.465Z,102316.22
2022-10-05T23:33:50.220Z,102308.25
2022-10-05T23:36:24.001Z,102313.63
2022-10-05T23:38:50.931Z,102309.03
2022-10-05T23:41:21.105Z,102309.22
2022-10-05T23:43:49.131Z,102310.25
2022-10-05T23:46:17.711Z,102307.47
2022-10-05T23:48:44.513Z,102308.44
2022-10-05T23:51:13.068Z,102308.44
2022-10-05T23:53:39.727Z,102306.69
2022-10-05T23:56:06.673Z,102305.75
2022-10-05T23:58:33.690Z,102313.81
